Time;durP1;ratioP1;P1;durP2;ratioP2;P2;SDS_P1;SDS_P2;PMS_P1;PMS_P2;Temp;Humidity;BMP_temperature;BMP_pressure;BME280_temperature;BME280_humidity;BME280_pressure;Samples;Min_cycle;Max_cycle;Signal;HPM_P1;HPM_P2
2022/10/09 00:01:16;;;;;;;5.40;2.97;;;;;;;;;;5061688;28;20393;-68
2022/10/09 00:03:43;;;;;;;3.38;2.70;;;;;;;;;;5061650;28;20201;-68
2022/10/09 00:06:11;;;;;;;2.78;2.55;;;;;;;;;;5061518;28;20197;-68
2022/10/09 00:08:39;;;;;;;6.18;3.10;;;;;;;;;;5061328;28;20243;-68
2022/10/09 00:11:06;;;;;;;3.83;2.50;;;;;;;;;;5061560;28;20197;-68
2022/10/09 00:13:33;;;;;;;4.65;2.63;;;;;;;;;;5061722;28;20216;-68
2022/10/09 00:16:01;;;;;;;3.25;2.95;;;;;;;;;;5061651;28;20227;-68
2022/10/09 00:18:28;;;;;;;3.83;2.42;;;;;;;;;;5062261;28;20397;-68
2022/10/09 00:20:54;;;;;;;2.78;2.58;;;;;;;;;;5065498;28;20200;-68
2022/10/09 00:23:20;;;;;;;3.03;2.28;;;;;;;;;;5065693;28;20372;-68
2022/10/09 00:25:52;;;;;;;2.85;2.60;;;;;;;;;;5065601;28;20197;-68
2022/10/09 00:28:18;;;;;;;2.63;2.40;;;;;;;;;;5065367;28;20573;-68
2022/10/09 00:30:45;;;;;;;3.30;2.55;;;;;;;;;;5065282;28;20225;-68
2022/10/09 00:33:11;;;;;;;4.03;3.20;;;;;;;;;;5065282;28;20204;-68
2022/10/09 00:35:37;;;;;;;3.97;2.50;;;;;;;;;;5065361;28;20197;-68
2022/10/09 00:38:04;;;;;;;6.63;3.60;;;;;;;;;;5065110;28;20208;-68
2022/10/09 00:40:30;;;;;;;4.40;3.88;;;;;;;;;;5065496;28;20288;-68
2022/10/09 00:42:58;;;;;;;7.72;3.88;;;;;;;;;;5065145;28;20197;-68
2022/10/09 00:45:24;;;;;;;4.82;3.60;;;;;;;;;;5065078;28;20408;-68
2022/10/09 00:47:52;;;;;;;7.05;4.07;;;;;;;;;;5064723;28;20197;-68
2022/10/09 00:50:21;;;;;;;3.72;3.10;;;;;;;;;;5065142;28;20452;-68
2022/10/09 00:52:49;;;;;;;3.22;2.97;;;;;;;;;;5064813;28;20197;-69
2022/10/09 00:55:16;;;;;;;4.50;3.38;;;;;;;;;;5064923;28;20526;-68
2022/10/09 00:57:42;;;;;;;5.40;3.25;;;;;;;;;;5064644;28;20570;-68
2022/10/09 01:00:11;;;;;;;3.78;2.65;;;;;;;;;;5064733;28;20244;-68
2022/10/09 01:02:37;;;;;;;4.70;2.83;;;;;;;;;;5064716;28;20197;-68
2022/10/09 01:05:04;;;;;;;3.38;2.45;;;;;;;;;;5064964;28;20277;-68
2022/10/09 01:07:34;;;;;;;4.53;2.75;;;;;;;;;;5064423;28;20227;-68
2022/10/09 01:10:02;;;;;;;2.97;2.65;;;;;;;;;;5064649;28;20209;-68
2022/10/09 01:12:36;;;;;;;3.67;2.85;;;;;;;;;;5064572;28;20404;-68
2022/10/09 01:15:07;;;;;;;2.70;2.50;;;;;;;;;;5064451;28;20211;-68
2022/10/09 01:17:37;;;;;;;4.28;3.10;;;;;;;;;;5064560;28;20197;-68
2022/10/09 01:20:11;;;;;;;5.70;2.95;;;;;;;;;;5064733;28;20227;-68
2022/10/09 01:22:45;;;;;;;3.70;3.15;;;;;;;;;;5064436;28;20267;-68
2022/10/09 01:25:15;;;;;;;3.88;2.90;;;;;;;;;;5063928;28;20193;-68
2022/10/09 01:27:42;;;;;;;3.40;2.70;;;;;;;;;;5063957;28;20209;-68
2022/10/09 01:30:10;;;;;;;3.25;3.05;;;;;;;;;;5063892;28;20392;-68
2022/10/09 01:32:38;;;;;;;4.00;3.03;;;;;;;;;;5064358;28;20198;-68
2022/10/09 01:35:05;;;;;;;4.95;3.15;;;;;;;;;;5064138;28;20197;-69
2022/10/09 01:37:32;;;;;;;6.85;3.22;;;;;;;;;;5063922;28;20220;-68
2022/10/09 01:39:59;;;;;;;6.03;3.25;;;;;;;;;;5063891;28;20221;-68
2022/10/09 01:42:27;;;;;;;2.80;2.60;;;;;;;;;;5063925;28;20204;-68
2022/10/09 01:44:54;;;;;;;4.70;3.10;;;;;;;;;;5064105;28;20193;-68
2022/10/09 01:47:21;;;;;;;6.00;2.95;;;;;;;;;;5063567;28;20197;-68
2022/10/09 01:49:52;;;;;;;6.25;3.47;;;;;;;;;;5063988;28;20197;-68
2022/10/09 01:52:24;;;;;;;3.20;2.90;;;;;;;;;;5063919;28;20201;-68
2022/10/09 01:54:56;;;;;;;3.03;2.65;;;;;;;;;;5063796;28;20236;-68
2022/10/09 01:57:26;;;;;;;3.35;2.70;;;;;;;;;;5063640;28;20232;-68
2022/10/09 01:59:53;;;;;;;3.40;3.10;;;;;;;;;;5063909;28;20235;-68
2022/10/09 02:02:21;;;;;;;3.97;3.08;;;;;;;;;;5063638;28;20197;-68
2022/10/09 02:04:48;;;;;;;2.92;2.65;;;;;;;;;;5063552;28;20197;-68
2022/10/09 02:07:15;;;;;;;6.97;2.88;;;;;;;;;;5063276;28;20238;-68
2022/10/09 02:09:43;;;;;;;5.18;2.88;;;;;;;;;;5063654;28;20193;-68
2022/10/09 02:12:11;;;;;;;3.17;2.85;;;;;;;;;;5063638;28;20201;-68
2022/10/09 02:14:38;;;;;;;3.38;2.92;;;;;;;;;;5063456;28;20197;-68
2022/10/09 02:17:06;;;;;;;4.32;3.00;;;;;;;;;;5063318;28;20204;-68
2022/10/09 02:19:35;;;;;;;3.72;2.88;;;;;;;;;;5063038;28;20225;-68
2022/10/09 02:22:05;;;;;;;3.13;2.72;;;;;;;;;;5063585;28;20204;-68
2022/10/09 02:24:32;;;;;;;3.17;2.88;;;;;;;;;;5063354;28;20204;-68
2022/10/09 02:26:59;;;;;;;3.25;2.80;;;;;;;;;;5063392;28;20201;-68
2022/10/09 02:29:25;;;;;;;4.68;2.67;;;;;;;;;;5063046;28;20204;-68
2022/10/09 02:31:52;;;;;;;3.00;2.70;;;;;;;;;;5063083;28;20201;-68
2022/10/09 02:34:19;;;;;;;7.20;3.25;;;;;;;;;;5062880;28;20197;-68
2022/10/09 02:36:47;;;;;;;3.30;2.72;;;;;;;;;;5063199;28;20197;-68
2022/10/09 02:39:13;;;;;;;3.78;2.90;;;;;;;;;;5062718;28;20197;-68
2022/10/09 02:41:40;;;;;;;6.60;3.10;;;;;;;;;;5062117;28;20443;-68
2022/10/09 02:44:06;;;;;;;4.35;3.05;;;;;;;;;;5062840;28;20289;-68
2022/10/09 02:46:32;;;;;;;5.95;2.90;;;;;;;;;;5062860;28;20197;-68
2022/10/09 02:48:59;;;;;;;4.05;2.78;;;;;;;;;;5063020;28;20500;-68
2022/10/09 02:51:25;;;;;;;5.90;2.95;;;;;;;;;;5062946;28;20209;-68
2022/10/09 02:53:53;;;;;;;4.28;2.85;;;;;;;;;;5062691;28;20268;-68
2022/10/09 02:56:19;;;;;;;3.60;3.22;;;;;;;;;;5062733;28;20197;-68
2022/10/09 02:58:46;;;;;;;3.53;3.22;;;;;;;;;;5062318;28;20217;-68
2022/10/09 03:01:12;;;;;;;3.40;3.10;;;;;;;;;;5062441;28;20217;-68
2022/10/09 03:03:38;;;;;;;10.38;3.40;;;;;;;;;;5062933;28;20205;-68
2022/10/09 03:06:08;;;;;;;4.18;3.10;;;;;;;;;;5062797;28;20211;-68
2022/10/09 03:08:35;;;;;;;5.85;2.95;;;;;;;;;;5062153;28;20209;-68
2022/10/09 03:11:02;;;;;;;3.10;2.70;;;;;;;;;;5062618;28;20392;-68
2022/10/09 03:13:28;;;;;;;4.68;3.03;;;;;;;;;;5062373;28;20197;-68
2022/10/09 03:15:55;;;;;;;4.53;3.13;;;;;;;;;;5062253;28;20212;-68
2022/10/09 03:18:21;;;;;;;5.25;3.05;;;;;;;;;;5062154;28;20197;-68
2022/10/09 03:20:47;;;;;;;5.18;3.10;;;;;;;;;;5062264;28;20227;-69
2022/10/09 03:23:14;;;;;;;5.95;3.10;;;;;;;;;;5062324;28;20197;-68
2022/10/09 03:25:40;;;;;;;3.42;3.22;;;;;;;;;;5062186;28;20204;-68
2022/10/09 03:28:08;;;;;;;4.68;2.88;;;;;;;;;;5061850;28;20212;-68
2022/10/09 03:30:34;;;;;;;4.47;3.10;;;;;;;;;;5062092;28;20193;-68
2022/10/09 03:33:00;;;;;;;6.93;3.20;;;;;;;;;;5062254;28;20205;-68
2022/10/09 03:35:26;;;;;;;4.95;3.05;;;;;;;;;;5062068;28;20209;-68
2022/10/09 03:37:53;;;;;;;5.38;3.25;;;;;;;;;;5061813;28;20268;-68
2022/10/09 03:40:19;;;;;;;5.43;2.97;;;;;;;;;;5061823;28;20212;-68
2022/10/09 03:42:45;;;;;;;3.85;2.70;;;;;;;;;;5061908;28;20209;-68
2022/10/09 03:45:13;;;;;;;3.70;3.10;;;;;;;;;;5061744;28;20204;-68
2022/10/09 03:47:39;;;;;;;4.10;3.13;;;;;;;;;;5061759;28;20379;-69
2022/10/09 03:50:06;;;;;;;5.95;3.30;;;;;;;;;;5061974;28;20196;-68
2022/10/09 03:52:35;;;;;;;5.80;3.38;;;;;;;;;;5061628;28;20203;-68
2022/10/09 03:55:01;;;;;;;3.33;2.85;;;;;;;;;;5062346;28;20232;-68
2022/10/09 03:57:27;;;;;;;4.75;3.10;;;;;;;;;;5061227;28;20239;-68
2022/10/09 03:59:53;;;;;;;3.55;3.20;;;;;;;;;;5061789;28;20488;-68
2022/10/09 04:02:21;;;;;;;3.83;2.90;;;;;;;;;;5061842;28;20287;-68
2022/10/09 04:04:47;;;;;;;3.30;2.95;;;;;;;;;;5061536;28;20284;-68
2022/10/09 04:07:13;;;;;;;3.35;3.03;;;;;;;;;;5061345;28;20378;-68
2022/10/09 04:09:40;;;;;;;7.63;3.45;;;;;;;;;;5061546;28;20371;-68
2022/10/09 04:12:06;;;;;;;4.40;3.60;;;;;;;;;;5061500;28;20204;-68
2022/10/09 04:14:32;;;;;;;6.35;3.35;;;;;;;;;;5061782;28;20496;-68
2022/10/09 04:16:59;;;;;;;4.47;3.22;;;;;;;;;;5061638;28;20197;-68
2022/10/09 04:19:26;;;;;;;3.70;3.30;;;;;;;;;;5061428;28;20204;-68
2022/10/09 04:21:52;;;;;;;6.13;3.80;;;;;;;;;;5061395;28;20227;-68
2022/10/09 04:24:19;;;;;;;5.80;3.55;;;;;;;;;;5061497;28;20492;-68
2022/10/09 04:26:45;;;;;;;4.47;3.30;;;;;;;;;;5061425;28;20547;-68
2022/10/09 04:29:11;;;;;;;4.10;3.58;;;;;;;;;;5061456;28;20197;-68
2022/10/09 04:31:38;;;;;;;5.00;3.55;;;;;;;;;;5061386;28;20204;-68
2022/10/09 04:34:04;;;;;;;4.90;3.50;;;;;;;;;;5061619;28;20394;-68
2022/10/09 04:36:32;;;;;;;8.90;3.80;;;;;;;;;;5061421;28;20386;-68
2022/10/09 04:38:58;;;;;;;6.07;4.78;;;;;;;;;;5061152;28;20351;-68
2022/10/09 04:41:24;;;;;;;5.10;3.53;;;;;;;;;;5061090;28;20213;-68
2022/10/09 04:43:54;;;;;;;6.95;3.90;;;;;;;;;;5061561;28;20504;-68
2022/10/09 04:46:20;;;;;;;5.35;3.67;;;;;;;;;;5061368;28;20197;-68
2022/10/09 04:48:47;;;;;;;9.05;4.32;;;;;;;;;;5061060;28;20205;-68
2022/10/09 04:51:13;;;;;;;4.93;3.90;;;;;;;;;;5061203;28;20193;-68
2022/10/09 04:53:41;;;;;;;4.28;3.95;;;;;;;;;;5061148;28;20449;-68
2022/10/09 04:56:08;;;;;;;4.78;3.78;;;;;;;;;;5061526;28;20397;-68
2022/10/09 04:58:35;;;;;;;6.15;4.00;;;;;;;;;;5060846;28;20217;-68
2022/10/09 05:01:04;;;;;;;4.38;3.97;;;;;;;;;;5061056;28;20209;-68
2022/10/09 05:03:31;;;;;;;7.82;4.35;;;;;;;;;;5061019;28;20201;-69
2022/10/09 05:06:00;;;;;;;5.55;3.70;;;;;;;;;;5064368;28;20505;-68
2022/10/09 05:08:26;;;;;;;4.18;3.88;;;;;;;;;;5064343;28;20205;-68
2022/10/09 05:10:59;;;;;;;7.15;3.83;;;;;;;;;;5064814;28;20374;-68
2022/10/09 05:13:25;;;;;;;6.20;3.85;;;;;;;;;;5064760;28;20268;-72
2022/10/09 05:15:51;;;;;;;7.72;3.80;;;;;;;;;;5064583;28;20197;-72
2022/10/09 05:18:18;;;;;;;5.15;4.10;;;;;;;;;;5064375;28;20235;-72
2022/10/09 05:20:44;;;;;;;6.07;4.05;;;;;;;;;;5064370;28;20217;-72
2022/10/09 05:23:10;;;;;;;6.00;3.92;;;;;;;;;;5064346;28;20228;-72
2022/10/09 05:25:37;;;;;;;11.27;4.07;;;;;;;;;;5064579;28;20203;-72
2022/10/09 05:28:05;;;;;;;3.97;3.40;;;;;;;;;;5064287;28;20197;-71
2022/10/09 05:30:31;;;;;;;8.13;3.75;;;;;;;;;;5064427;28;20208;-71
2022/10/09 05:32:57;;;;;;;3.45;3.25;;;;;;;;;;5064339;28;20214;-71
2022/10/09 05:35:24;;;;;;;7.20;3.85;;;;;;;;;;5064102;28;20200;-71
2022/10/09 05:37:50;;;;;;;4.00;3.58;;;;;;;;;;5063840;28;20201;-71
2022/10/09 05:40:16;;;;;;;4.20;3.90;;;;;;;;;;5063981;28;20409;-71
2022/10/09 05:42:42;;;;;;;4.18;3.67;;;;;;;;;;5064067;28;20500;-71
2022/10/09 05:45:10;;;;;;;4.47;4.07;;;;;;;;;;5063871;28;20367;-71
2022/10/09 05:47:37;;;;;;;4.80;3.50;;;;;;;;;;5063730;28;20208;-71
2022/10/09 05:50:03;;;;;;;4.47;3.70;;;;;;;;;;5063869;28;20362;-71
2022/10/09 05:52:29;;;;;;;8.27;3.95;;;;;;;;;;5063832;28;20193;-71
2022/10/09 05:54:56;;;;;;;4.40;4.00;;;;;;;;;;5063790;28;20200;-71
2022/10/09 05:57:22;;;;;;;3.55;3.25;;;;;;;;;;5063590;28;20256;-72
2022/10/09 05:59:49;;;;;;;5.38;3.83;;;;;;;;;;5063827;28;20201;-71
2022/10/09 06:02:16;;;;;;;7.15;4.22;;;;;;;;;;5063632;28;20216;-71
2022/10/09 06:04:43;;;;;;;4.50;3.67;;;;;;;;;;5064066;28;20227;-72
2022/10/09 06:07:10;;;;;;;6.68;3.70;;;;;;;;;;5063607;28;20208;-72
2022/10/09 06:09:36;;;;;;;7.57;4.18;;;;;;;;;;5063482;28;20200;-72
2022/10/09 06:12:03;;;;;;;6.80;3.72;;;;;;;;;;5063483;28;20209;-72
2022/10/09 06:14:29;;;;;;;5.10;3.70;;;;;;;;;;5063572;28;20276;-72
2022/10/09 06:16:55;;;;;;;4.30;3.90;;;;;;;;;;5063368;28;20205;-72
2022/10/09 06:19:23;;;;;;;3.90;3.60;;;;;;;;;;5063244;28;20384;-71
2022/10/09 06:21:49;;;;;;;6.65;4.22;;;;;;;;;;5063519;28;20227;-71
2022/10/09 06:24:20;;;;;;;4.63;3.63;;;;;;;;;;5063703;28;20204;-72
2022/10/09 06:26:46;;;;;;;5.85;3.88;;;;;;;;;;5063461;28;20268;-72
2022/10/09 06:29:12;;;;;;;5.13;3.83;;;;;;;;;;5063345;28;20504;-72
2022/10/09 06:31:39;;;;;;;6.47;4.03;;;;;;;;;;5063361;28;20193;-72
2022/10/09 06:34:05;;;;;;;6.88;4.00;;;;;;;;;;5063487;28;20228;-72
2022/10/09 06:36:33;;;;;;;6.90;4.45;;;;;;;;;;5063461;28;20196;-72
2022/10/09 06:39:00;;;;;;;4.97;4.53;;;;;;;;;;5063000;28;20200;-72
2022/10/09 06:41:27;;;;;;;7.45;4.68;;;;;;;;;;5063207;28;20223;-72
2022/10/09 06:43:55;;;;;;;6.97;4.60;;;;;;;;;;5063561;28;20196;-72
2022/10/09 06:46:22;;;;;;;9.05;4.63;;;;;;;;;;5062904;28;20205;-71
2022/10/09 06:48:49;;;;;;;5.18;4.68;;;;;;;;;;5063115;28;20510;-71
2022/10/09 06:51:16;;;;;;;5.45;4.95;;;;;;;;;;5062927;28;20208;-71
2022/10/09 06:53:44;;;;;;;6.97;5.00;;;;;;;;;;5062834;28;20204;-71
2022/10/09 06:56:11;;;;;;;7.00;4.95;;;;;;;;;;5063000;28;20201;-71
2022/10/09 06:58:38;;;;;;;11.05;5.28;;;;;;;;;;5062977;28;20456;-72
2022/10/09 07:01:06;;;;;;;6.22;4.60;;;;;;;;;;5062617;28;20232;-72
2022/10/09 07:03:32;;;;;;;10.35;5.07;;;;;;;;;;5062993;28;20514;-72
2022/10/09 07:06:05;;;;;;;8.25;5.07;;;;;;;;;;5062843;28;20198;-72
2022/10/09 07:08:32;;;;;;;11.77;5.57;;;;;;;;;;5062406;28;20205;-72
2022/10/09 07:10:59;;;;;;;6.45;5.70;;;;;;;;;;5062580;28;20200;-72
2022/10/09 07:13:26;;;;;;;8.50;5.53;;;;;;;;;;5062443;28;20212;-71
2022/10/09 07:15:52;;;;;;;11.00;5.45;;;;;;;;;;5062581;28;20201;-71
2022/10/09 07:18:18;;;;;;;6.38;5.20;;;;;;;;;;5062339;28;20205;-71
2022/10/09 07:20:44;;;;;;;6.32;5.60;;;;;;;;;;5062491;28;20521;-71
2022/10/09 07:23:11;;;;;;;12.70;5.70;;;;;;;;;;5062381;28;20228;-71
2022/10/09 07:25:37;;;;;;;7.50;5.82;;;;;;;;;;5062411;28;20198;-72
2022/10/09 07:28:05;;;;;;;6.07;5.32;;;;;;;;;;5062116;28;20197;-72
2022/10/09 07:30:31;;;;;;;6.82;5.85;;;;;;;;;;5062477;28;20500;-72
2022/10/09 07:32:58;;;;;;;8.68;5.97;;;;;;;;;;5062341;28;20216;-72
2022/10/09 07:35:24;;;;;;;7.65;5.90;;;;;;;;;;5062393;28;20204;-72
2022/10/09 07:37:51;;;;;;;7.32;5.85;;;;;;;;;;5062076;28;20386;-71
2022/10/09 07:40:17;;;;;;;8.77;5.72;;;;;;;;;;5062245;28;20520;-71
2022/10/09 07:42:43;;;;;;;8.35;5.85;;;;;;;;;;5061952;28;20400;-71
2022/10/09 07:45:11;;;;;;;7.43;6.10;;;;;;;;;;5062331;28;20197;-71
2022/10/09 07:47:37;;;;;;;7.93;6.75;;;;;;;;;;5061821;28;20457;-71
2022/10/09 07:50:04;;;;;;;12.65;7.18;;;;;;;;;;5062081;28;20207;-71
2022/10/09 07:52:30;;;;;;;11.95;6.47;;;;;;;;;;5061983;28;20200;-70
2022/10/09 07:54:56;;;;;;;7.63;5.80;;;;;;;;;;5061899;28;20193;-71
2022/10/09 07:57:23;;;;;;;10.63;6.15;;;;;;;;;;5061638;28;20231;-71
2022/10/09 07:59:49;;;;;;;5.63;4.90;;;;;;;;;;5062106;28;20197;-71
2022/10/09 08:02:17;;;;;;;9.35;5.53;;;;;;;;;;5061955;28;20217;-71
2022/10/09 08:04:43;;;;;;;9.05;6.30;;;;;;;;;;5061858;28;20201;-71
2022/10/09 08:07:09;;;;;;;8.20;5.75;;;;;;;;;;5061731;28;20438;-71
2022/10/09 08:09:36;;;;;;;8.13;5.70;;;;;;;;;;5062321;28;20201;-71
2022/10/09 08:12:02;;;;;;;5.50;4.85;;;;;;;;;;5061975;28;20193;-71
2022/10/09 08:14:28;;;;;;;8.68;5.30;;;;;;;;;;5061836;28;20379;-71
2022/10/09 08:16:54;;;;;;;6.35;5.45;;;;;;;;;;5061984;28;20197;-71
2022/10/09 08:19:22;;;;;;;5.57;5.05;;;;;;;;;;5061531;28;20201;-71
2022/10/09 08:21:48;;;;;;;7.35;5.47;;;;;;;;;;5061615;28;20536;-71
2022/10/09 08:24:15;;;;;;;9.65;5.63;;;;;;;;;;5061861;28;20365;-71
2022/10/09 08:26:43;;;;;;;6.68;4.97;;;;;;;;;;5061964;28;20197;-71
2022/10/09 08:29:12;;;;;;;11.40;4.68;;;;;;;;;;5061529;28;20209;-71
2022/10/09 08:31:39;;;;;;;6.90;4.20;;;;;;;;;;5061862;28;20220;-71
2022/10/09 08:34:06;;;;;;;6.30;4.15;;;;;;;;;;5061686;28;20203;-71
2022/10/09 08:36:34;;;;;;;15.40;4.32;;;;;;;;;;5061703;28;20224;-71
2022/10/09 08:39:00;;;;;;;6.28;3.70;;;;;;;;;;5061391;28;20235;-71
2022/10/09 08:41:37;;;;;;;3.95;2.80;;;;;;;;;;5065452;28;20283;-71
2022/10/09 08:44:05;;;;;;;5.47;2.63;;;;;;;;;;5065481;28;20196;-71
2022/10/09 08:46:34;;;;;;;5.47;2.30;;;;;;;;;;5065345;28;20201;-70
2022/10/09 08:49:02;;;;;;;4.22;2.42;;;;;;;;;;5065195;28;20204;-70
2022/10/09 08:51:30;;;;;;;6.10;2.60;;;;;;;;;;5065188;28;20193;-70
2022/10/09 08:54:02;;;;;;;2.22;2.10;;;;;;;;;;5065626;28;20204;-70
2022/10/09 08:56:29;;;;;;;4.18;2.55;;;;;;;;;;5065260;28;20204;-71
2022/10/09 08:58:55;;;;;;;3.90;2.30;;;;;;;;;;5065535;28;20224;-71
2022/10/09 09:01:25;;;;;;;2.28;2.10;;;;;;;;;;5065233;28;20204;-71
2022/10/09 09:03:56;;;;;;;3.60;2.17;;;;;;;;;;5065053;28;20196;-71
2022/10/09 09:06:26;;;;;;;3.67;2.00;;;;;;;;;;5065222;28;20197;-71
2022/10/09 09:08:55;;;;;;;4.53;1.90;;;;;;;;;;5064684;28;20204;-71
2022/10/09 09:11:28;;;;;;;2.42;2.00;;;;;;;;;;5065057;28;20197;-71
2022/10/09 09:13:59;;;;;;;3.08;1.85;;;;;;;;;;5064878;28;20449;-71
2022/10/09 09:16:31;;;;;;;4.65;1.83;;;;;;;;;;5064742;28;20197;-71
2022/10/09 09:19:05;;;;;;;2.70;1.70;;;;;;;;;;5064510;28;20220;-71
2022/10/09 09:21:34;;;;;;;2.13;1.90;;;;;;;;;;5064733;28;20271;-71
2022/10/09 09:24:02;;;;;;;2.60;1.40;;;;;;;;;;5064724;28;20503;-71
2022/10/09 09:26:30;;;;;;;3.17;1.40;;;;;;;;;;5064692;28;20197;-71
2022/10/09 09:29:01;;;;;;;5.38;1.40;;;;;;;;;;5064259;28;20197;-71
2022/10/09 09:31:30;;;;;;;1.65;1.55;;;;;;;;;;5064716;28;20546;-71
2022/10/09 09:33:59;;;;;;;2.85;1.50;;;;;;;;;;5064549;28;20204;-71
2022/10/09 09:36:28;;;;;;;3.08;1.40;;;;;;;;;;5064509;28;20389;-71
2022/10/09 09:38:54;;;;;;;1.45;1.35;;;;;;;;;;5064170;28;20197;-71
2022/10/09 09:41:20;;;;;;;3.28;1.40;;;;;;;;;;5064416;28;20389;-71
2022/10/09 09:43:48;;;;;;;1.70;1.55;;;;;;;;;;5064871;28;20197;-71
2022/10/09 09:46:16;;;;;;;5.18;1.65;;;;;;;;;;5064371;28;20197;-71
2022/10/09 09:48:46;;;;;;;7.05;3.72;;;;;;;;;;5064419;28;20201;-71
2022/10/09 09:51:14;;;;;;;10.70;4.82;;;;;;;;;;5063961;28;20201;-71
2022/10/09 09:53:42;;;;;;;7.43;3.85;;;;;;;;;;5064152;28;20216;-71
2022/10/09 09:56:08;;;;;;;4.88;3.28;;;;;;;;;;5064118;28;20211;-71
2022/10/09 09:58:38;;;;;;;4.53;3.83;;;;;;;;;;5063808;28;20217;-71
2022/10/09 10:01:06;;;;;;;2.22;1.70;;;;;;;;;;5064120;28;20416;-71
2022/10/09 10:03:33;;;;;;;5.60;4.30;;;;;;;;;;5063907;28;20296;-71
2022/10/09 10:05:59;;;;;;;4.95;3.03;;;;;;;;;;5063879;28;20203;-71
2022/10/09 10:08:27;;;;;;;6.90;5.03;;;;;;;;;;5063527;28;20211;-71
2022/10/09 10:10:55;;;;;;;4.78;2.13;;;;;;;;;;5064007;28;20434;-71
2022/10/09 10:13:22;;;;;;;4.22;1.80;;;;;;;;;;5063653;28;20220;-71
2022/10/09 10:15:53;;;;;;;3.53;1.80;;;;;;;;;;5064146;28;20235;-71
2022/10/09 10:18:21;;;;;;;5.25;2.47;;;;;;;;;;5063385;28;20227;-71
2022/10/09 10:20:49;;;;;;;3.75;2.75;;;;;;;;;;5063696;28;20397;-71
2022/10/09 10:23:23;;;;;;;5.50;1.83;;;;;;;;;;5063435;28;20221;-71
2022/10/09 10:25:50;;;;;;;4.47;1.77;;;;;;;;;;5063751;28;20483;-71
2022/10/09 10:28:20;;;;;;;4.40;1.85;;;;;;;;;;5063604;28;20197;-71
2022/10/09 10:30:48;;;;;;;3.45;1.73;;;;;;;;;;5063558;28;20337;-71
2022/10/09 10:33:17;;;;;;;1.52;1.10;;;;;;;;;;5063435;28;20241;-71
2022/10/09 10:35:45;;;;;;;5.60;1.52;;;;;;;;;;5063707;28;20205;-71
2022/10/09 10:38:12;;;;;;;1.45;1.10;;;;;;;;;;5063360;28;20499;-71
2022/10/09 10:40:42;;;;;;;2.15;1.30;;;;;;;;;;5063341;28;20288;-71
2022/10/09 10:43:14;;;;;;;3.50;1.20;;;;;;;;;;5063210;28;20223;-71
2022/10/09 10:45:48;;;;;;;3.40;1.50;;;;;;;;;;5063181;28;20197;-71
2022/10/09 10:48:16;;;;;;;3.03;1.48;;;;;;;;;;5063000;28;20193;-71
2022/10/09 10:50:45;;;;;;;4.30;1.63;;;;;;;;;;5063331;28;20197;-71
2022/10/09 10:53:18;;;;;;;2.00;1.80;;;;;;;;;;5063117;28;20200;-71
2022/10/09 10:55:49;;;;;;;2.35;1.70;;;;;;;;;;5062941;28;20239;-71
2022/10/09 10:58:22;;;;;;;3.90;2.08;;;;;;;;;;5062401;28;20248;-71
2022/10/09 11:00:53;;;;;;;1.65;1.17;;;;;;;;;;5062792;28;20205;-71
2022/10/09 11:03:33;;;;;;;2.40;0.93;;;;;;;;;;5061849;28;20224;-70
2022/10/09 11:06:04;;;;;;;2.72;1.52;;;;;;;;;;5062525;28;20386;-70
2022/10/09 11:08:43;;;;;;;6.03;1.70;;;;;;;;;;5062154;28;20211;-70
2022/10/09 11:11:13;;;;;;;3.55;1.75;;;;;;;;;;5062713;28;20256;-70
2022/10/09 11:13:44;;;;;;;2.05;1.20;;;;;;;;;;5062763;28;20200;-70
2022/10/09 11:16:18;;;;;;;1.88;1.45;;;;;;;;;;5062654;28;20211;-71
2022/10/09 11:18:51;;;;;;;1.98;1.30;;;;;;;;;;5062346;28;20196;-71
2022/10/09 11:21:23;;;;;;;2.15;1.65;;;;;;;;;;5062408;28;20197;-72
2022/10/09 11:24:08;;;;;;;2.83;1.35;;;;;;;;;;5062356;28;20224;-70
2022/10/09 11:26:39;;;;;;;2.20;1.40;;;;;;;;;;5062496;28;20197;-70
2022/10/09 11:29:09;;;;;;;1.42;1.33;;;;;;;;;;5062548;28;20205;-70
2022/10/09 11:31:37;;;;;;;2.08;1.90;;;;;;;;;;5062221;28;20203;-70
2022/10/09 11:34:05;;;;;;;3.22;1.90;;;;;;;;;;5062558;28;20268;-70
2022/10/09 11:36:34;;;;;;;1.20;1.20;;;;;;;;;;5062178;28;20201;-70
2022/10/09 11:39:02;;;;;;;1.50;1.30;;;;;;;;;;5061997;28;20197;-70
2022/10/09 11:41:30;;;;;;;4.55;2.75;;;;;;;;;;5062251;28;20205;-70
2022/10/09 11:44:04;;;;;;;1.48;1.27;;;;;;;;;;5062213;28;20607;-70
2022/10/09 11:46:34;;;;;;;5.13;2.20;;;;;;;;;;5062110;28;20200;-71
2022/10/09 11:49:06;;;;;;;1.55;1.20;;;;;;;;;;5062135;28;20250;-71
2022/10/09 11:51:36;;;;;;;1.35;1.00;;;;;;;;;;5062089;28;20197;-70
2022/10/09 11:54:03;;;;;;;3.17;1.10;;;;;;;;;;5062396;28;20193;-70
2022/10/09 11:56:32;;;;;;;3.25;1.70;;;;;;;;;;5061972;28;20205;-70
2022/10/09 11:58:59;;;;;;;2.17;1.67;;;;;;;;;;5061670;28;20594;-70
2022/10/09 12:01:28;;;;;;;1.27;1.00;;;;;;;;;;5062181;28;20204;-71
2022/10/09 12:04:02;;;;;;;0.95;0.95;;;;;;;;;;5062059;28;20221;-71
2022/10/09 12:06:29;;;;;;;2.05;1.10;;;;;;;;;;5061860;28;20307;-71
2022/10/09 12:08:57;;;;;;;3.10;0.93;;;;;;;;;;5061854;28;20186;-71
2022/10/09 12:11:24;;;;;;;2.05;1.50;;;;;;;;;;5061873;28;20204;-71
2022/10/09 12:13:52;;;;;;;3.47;1.40;;;;;;;;;;5063741;28;20411;-71
2022/10/09 12:16:30;;;;;;;1.25;1.10;;;;;;;;;;5066151;28;20208;-71
2022/10/09 12:18:57;;;;;;;1.25;1.08;;;;;;;;;;5065776;28;20204;-71
2022/10/09 12:21:25;;;;;;;2.40;1.30;;;;;;;;;;5065970;28;20203;-71
2022/10/09 12:23:52;;;;;;;2.78;1.00;;;;;;;;;;5065667;28;20223;-71
2022/10/09 12:26:20;;;;;;;1.20;1.10;;;;;;;;;;5065947;28;20200;-71
2022/10/09 12:28:48;;;;;;;2.55;1.20;;;;;;;;;;5065643;28;20196;-70
2022/10/09 12:31:18;;;;;;;2.30;1.25;;;;;;;;;;5065825;28;20196;-70
2022/10/09 12:33:45;;;;;;;1.13;0.90;;;;;;;;;;5065586;28;20201;-70
2022/10/09 12:36:13;;;;;;;5.03;1.30;;;;;;;;;;5065496;28;20204;-70
2022/10/09 12:38:39;;;;;;;1.10;0.95;;;;;;;;;;5065330;28;20247;-70
2022/10/09 12:41:07;;;;;;;2.45;0.95;;;;;;;;;;5065617;28;20203;-70
2022/10/09 12:43:35;;;;;;;1.75;1.02;;;;;;;;;;5065543;28;20251;-70
2022/10/09 12:46:01;;;;;;;1.08;0.90;;;;;;;;;;5065309;28;20479;-70
2022/10/09 12:48:30;;;;;;;1.48;1.10;;;;;;;;;;5065147;28;20267;-70
2022/10/09 12:50:56;;;;;;;3.55;1.25;;;;;;;;;;5065320;28;20204;-70
2022/10/09 12:53:24;;;;;;;2.47;0.95;;;;;;;;;;5065493;28;20392;-70
2022/10/09 12:55:51;;;;;;;1.45;1.15;;;;;;;;;;5065486;28;20392;-70
2022/10/09 12:58:19;;;;;;;2.53;1.20;;;;;;;;;;5064827;28;20228;-70
2022/10/09 13:00:47;;;;;;;3.42;1.17;;;;;;;;;;5065244;28;20492;-71
2022/10/09 13:03:23;;;;;;;3.58;1.63;;;;;;;;;;5064992;28;20416;-71
2022/10/09 13:05:51;;;;;;;2.17;1.17;;;;;;;;;;5065227;28;20532;-70
2022/10/09 13:08:23;;;;;;;1.35;1.23;;;;;;;;;;5064713;28;20232;-70
2022/10/09 13:10:49;;;;;;;2.30;1.00;;;;;;;;;;5065177;28;20197;-70
2022/10/09 13:13:19;;;;;;;4.95;1.40;;;;;;;;;;5064870;28;20200;-70
2022/10/09 13:15:46;;;;;;;1.85;1.25;;;;;;;;;;5064616;28;20197;-71
2022/10/09 13:18:13;;;;;;;1.38;1.30;;;;;;;;;;5064526;28;20205;-71
2022/10/09 13:20:39;;;;;;;1.10;1.00;;;;;;;;;;5064773;28;20196;-71
2022/10/09 13:23:07;;;;;;;3.05;1.55;;;;;;;;;;5064452;28;20223;-71
2022/10/09 13:25:34;;;;;;;2.05;1.38;;;;;;;;;;5063450;28;20204;-71
2022/10/09 13:28:01;;;;;;;3.15;1.30;;;;;;;;;;5064043;28;20492;-71
2022/10/09 13:30:27;;;;;;;1.95;1.17;;;;;;;;;;5064167;28;20197;-71
2022/10/09 13:32:54;;;;;;;3.25;1.20;;;;;;;;;;5064398;28;20440;-71
2022/10/09 13:35:20;;;;;;;2.47;1.00;;;;;;;;;;5064393;28;20196;-71
2022/10/09 13:37:46;;;;;;;3.35;1.50;;;;;;;;;;5063967;28;20197;-71
2022/10/09 13:40:16;;;;;;;2.80;1.20;;;;;;;;;;5064321;28;20212;-71
2022/10/09 13:42:46;;;;;;;4.05;1.60;;;;;;;;;;5064074;28;20553;-71
2022/10/09 13:45:12;;;;;;;2.13;1.27;;;;;;;;;;5063997;28;20217;-71
2022/10/09 13:47:39;;;;;;;3.13;1.40;;;;;;;;;;5063904;28;20201;-71
2022/10/09 13:50:05;;;;;;;3.47;1.30;;;;;;;;;;5064256;28;20393;-71
2022/10/09 13:52:31;;;;;;;3.75;1.75;;;;;;;;;;5064430;28;20209;-71
2022/10/09 13:54:58;;;;;;;2.10;1.20;;;;;;;;;;5063831;28;20194;-71
2022/10/09 13:57:25;;;;;;;4.63;1.17;;;;;;;;;;5063384;28;20448;-70
2022/10/09 13:59:51;;;;;;;2.72;1.25;;;;;;;;;;5063609;28;20203;-70
2022/10/09 14:02:18;;;;;;;2.90;1.33;;;;;;;;;;5063719;28;20197;-70
2022/10/09 14:04:44;;;;;;;2.78;1.40;;;;;;;;;;5063737;28;20286;-70
2022/10/09 14:07:10;;;;;;;1.48;1.25;;;;;;;;;;5063660;28;20205;-70
2022/10/09 14:09:37;;;;;;;1.17;1.10;;;;;;;;;;5063703;28;20235;-70
2022/10/09 14:12:03;;;;;;;2.33;1.40;;;;;;;;;;5063702;28;20508;-71
2022/10/09 14:14:31;;;;;;;3.05;1.30;;;;;;;;;;5063201;28;20208;-71
2022/10/09 14:16:57;;;;;;;1.83;1.63;;;;;;;;;;5062280;28;20197;-71
2022/10/09 14:19:26;;;;;;;2.05;1.70;;;;;;;;;;5063222;28;20192;-71
2022/10/09 14:21:52;;;;;;;5.03;1.65;;;;;;;;;;5063460;28;20201;-70
2022/10/09 14:24:19;;;;;;;3.83;1.55;;;;;;;;;;5063148;28;20220;-66
2022/10/09 14:26:45;;;;;;;2.40;2.20;;;;;;;;;;5062751;28;20197;-57
2022/10/09 14:29:11;;;;;;;2.15;1.83;;;;;;;;;;5063047;28;20504;-58
2022/10/09 14:31:39;;;;;;;1.88;1.77;;;;;;;;;;5063235;28;20197;-57
2022/10/09 14:34:05;;;;;;;1.65;1.55;;;;;;;;;;5063695;28;20277;-57
2022/10/09 14:36:32;;;;;;;1.92;1.60;;;;;;;;;;5062741;28;20197;-57
2022/10/09 14:38:58;;;;;;;2.85;1.25;;;;;;;;;;5062807;28;20492;-56
2022/10/09 14:41:25;;;;;;;3.33;1.27;;;;;;;;;;5063040;28;20515;-56
2022/10/09 14:43:55;;;;;;;2.78;1.40;;;;;;;;;;5049351;28;20276;-57
2022/10/09 14:46:21;;;;;;;2.95;1.45;;;;;;;;;;5056647;28;20209;-57